Big Valley, Canada
Current Conditions -  °F | °C
As of 5:00 PM on Monday 22 Dec 2014 (Local Time) from CYQF Reporting Station
Few Clouds Few Clouds  
Wind Chill: 22°   Ceiling: Unl
Heat Index: 28°   Visibility: 15mi
Dew Point: 19°   Wind: 6mph
Humidity: 69%   Direction: 270°W
Pressure: 30.01"   Gusts: NA
Location:  52.03°N, 112.75°W
Report Text: CYQF 230000Z 27005KT 15SM FEW080 M02/M07 A3001 RMK AC2 SLP212
Loading
Personal Weather Stations






























Interactive Weather Map New forecast layout! Learn more

10-Day Weather Forecast

Advertisements
Track Severe Weather on mobile